createdAt,value
2023-04-26T00:02:00.488Z,100.00
2023-04-26T00:04:29.227Z,100.00
2023-04-26T00:06:56.927Z,100.00
2023-04-26T00:09:23.837Z,100.00
2023-04-26T00:11:51.054Z,100.00
2023-04-26T00:14:18.183Z,100.00
2023-04-26T00:16:45.168Z,100.00
2023-04-26T00:19:12.789Z,100.00
2023-04-26T00:21:40.626Z,100.00
2023-04-26T00:24:08.539Z,100.00
2023-04-26T00:26:35.930Z,100.00
2023-04-26T00:29:04.537Z,100.00
2023-04-26T00:31:31.807Z,100.00
2023-04-26T00:33:58.568Z,100.00
2023-04-26T00:36:26.214Z,100.00
2023-04-26T00:38:53.379Z,100.00
2023-04-26T00:41:20.559Z,100.00
2023-04-26T00:43:47.392Z,100.00
2023-04-26T00:46:14.334Z,100.00
2023-04-26T00:48:41.702Z,100.00
2023-04-26T00:51:09.212Z,100.00
2023-04-26T00:53:36.585Z,100.00
2023-04-26T00:56:06.783Z,100.00
2023-04-26T00:58:33.718Z,100.00
2023-04-26T01:01:00.723Z,100.00
2023-04-26T01:03:28.353Z,100.00
2023-04-26T01:05:55.309Z,100.00
2023-04-26T01:08:23.591Z,100.00
2023-04-26T01:10:50.849Z,100.00
2023-04-26T01:13:17.985Z,100.00
2023-04-26T01:15:49.353Z,100.00
2023-04-26T01:18:19.224Z,100.00
2023-04-26T01:20:46.795Z,100.00
2023-04-26T01:23:13.670Z,100.00
2023-04-26T01:25:41.246Z,100.00
2023-04-26T01:28:08.059Z,100.00
2023-04-26T01:30:34.786Z,100.00
2023-04-26T01:33:01.677Z,100.00
2023-04-26T01:35:28.528Z,100.00
2023-04-26T01:37:55.485Z,100.00
2023-04-26T01:40:22.296Z,100.00
2023-04-26T01:42:49.199Z,100.00
2023-04-26T01:45:17.532Z,100.00
2023-04-26T01:47:44.770Z,100.00
2023-04-26T01:50:11.849Z,100.00
2023-04-26T01:52:38.639Z,100.00
2023-04-26T01:55:06.295Z,100.00
2023-04-26T01:57:33.060Z,100.00
2023-04-26T02:00:02.356Z,100.00
2023-04-26T02:02:29.236Z,100.00
2023-04-26T02:04:56.171Z,100.00
2023-04-26T02:07:23.024Z,100.00
2023-04-26T02:09:49.966Z,100.00
2023-04-26T02:12:17.299Z,100.00
2023-04-26T02:14:44.126Z,100.00
2023-04-26T02:17:11.171Z,100.00
2023-04-26T02:19:38.008Z,100.00
2023-04-26T02:22:06.310Z,100.00
2023-04-26T02:24:33.677Z,100.00
2023-04-26T02:27:04.044Z,100.00
2023-04-26T02:29:43.614Z,100.00
2023-04-26T02:32:12.429Z,100.00
2023-04-26T02:34:39.234Z,100.00
2023-04-26T02:37:06.250Z,100.00
2023-04-26T02:39:33.303Z,100.00
2023-04-26T02:42:00.347Z,100.00
2023-04-26T02:44:31.056Z,100.00
2023-04-26T02:47:01.256Z,100.00
2023-04-26T02:49:28.245Z,100.00
2023-04-26T02:51:55.016Z,100.00
2023-04-26T02:54:21.789Z,100.00
2023-04-26T02:56:48.577Z,100.00
2023-04-26T02:59:15.782Z,100.00
2023-04-26T03:01:43.466Z,100.00
2023-04-26T03:04:13.642Z,100.00
2023-04-26T03:06:41.074Z,100.00
2023-04-26T03:09:07.849Z,100.00
2023-04-26T03:11:35.249Z,100.00
2023-04-26T03:14:02.192Z,100.00
2023-04-26T03:16:29.132Z,100.00
2023-04-26T03:18:55.969Z,100.00
2023-04-26T03:21:22.912Z,100.00
2023-04-26T03:23:49.956Z,100.00
2023-04-26T03:26:16.740Z,100.00
2023-04-26T03:28:43.521Z,100.00
2023-04-26T03:31:10.350Z,100.00
2023-04-26T03:33:37.713Z,100.00
2023-04-26T03:36:04.964Z,100.00
2023-04-26T03:38:31.724Z,100.00
2023-04-26T03:40:58.675Z,100.00
2023-04-26T03:43:25.727Z,100.00
2023-04-26T03:45:52.704Z,100.00
2023-04-26T03:48:22.064Z,100.00
2023-04-26T03:50:49.297Z,100.00
2023-04-26T03:53:19.325Z,100.00
2023-04-26T03:55:49.254Z,100.00
2023-04-26T03:58:16.111Z,100.00
2023-04-26T04:00:43.544Z,100.00
2023-04-26T04:03:10.684Z,100.00
2023-04-26T04:05:40.586Z,100.00
2023-04-26T04:08:07.370Z,100.00
2023-04-26T04:10:34.161Z,100.00
2023-04-26T04:13:00.917Z,100.00
2023-04-26T04:15:28.039Z,100.00
2023-04-26T04:17:54.985Z,100.00
2023-04-26T04:20:22.777Z,100.00
2023-04-26T04:22:49.555Z,100.00
2023-04-26T04:25:16.441Z,100.00
2023-04-26T04:27:45.548Z,100.00
2023-04-26T04:30:12.793Z,100.00
2023-04-26T04:32:40.344Z,100.00
2023-04-26T04:35:07.808Z,100.00
2023-04-26T04:37:34.796Z,100.00
2023-04-26T04:40:01.766Z,100.00
2023-04-26T04:42:28.875Z,100.00
2023-04-26T04:44:57.008Z,100.00
2023-04-26T04:47:24.199Z,100.00
2023-04-26T04:49:52.957Z,100.00
2023-04-26T04:52:21.759Z,100.00
2023-04-26T04:54:48.884Z,100.00
2023-04-26T04:57:16.711Z,100.00
2023-04-26T04:59:43.872Z,100.00
2023-04-26T05:02:10.947Z,100.00
2023-04-26T05:04:38.358Z,100.00
2023-04-26T05:07:06.925Z,100.00
2023-04-26T05:09:33.896Z,100.00
2023-04-26T05:12:01.209Z,100.00
2023-04-26T05:14:31.303Z,100.00
2023-04-26T05:16:58.119Z,100.00
2023-04-26T05:19:25.032Z,100.00
2023-04-26T05:21:52.728Z,100.00
2023-04-26T05:24:19.527Z,100.00
2023-04-26T05:26:46.368Z,100.00
2023-04-26T05:29:13.245Z,100.00
2023-04-26T05:31:40.077Z,100.00
2023-04-26T05:34:06.864Z,100.00
2023-04-26T05:36:33.743Z,100.00
2023-04-26T05:39:00.552Z,100.00
2023-04-26T05:41:27.378Z,100.00
2023-04-26T05:43:57.145Z,100.00
2023-04-26T05:46:24.123Z,100.00
2023-04-26T05:48:51.271Z,100.00
2023-04-26T05:51:20.370Z,100.00
2023-04-26T05:53:47.235Z,100.00
2023-04-26T05:56:14.071Z,100.00
2023-04-26T05:58:44.424Z,100.00
2023-04-26T06:01:12.276Z,100.00
2023-04-26T06:03:39.435Z,100.00
2023-04-26T06:06:07.875Z,100.00
2023-04-26T06:08:35.554Z,100.00
2023-04-26T06:11:02.715Z,100.00
2023-04-26T06:13:29.886Z,100.00
2023-04-26T06:15:58.782Z,100.00
2023-04-26T06:18:27.869Z,100.00
2023-04-26T06:20:54.767Z,100.00
2023-04-26T06:23:22.244Z,100.00
2023-04-26T06:25:49.196Z,100.00
2023-04-26T06:28:16.271Z,100.00
2023-04-26T06:30:43.638Z,100.00
2023-04-26T06:33:10.684Z,100.00
2023-04-26T06:35:42.168Z,100.00
2023-04-26T06:38:09.208Z,100.00
2023-04-26T06:40:39.151Z,100.00
2023-04-26T06:43:08.609Z,98.94
2023-04-26T06:45:36.085Z,97.36
2023-04-26T06:48:04.756Z,97.72
2023-04-26T06:50:31.864Z,99.10
2023-04-26T06:53:01.598Z,100.00
2023-04-26T06:55:28.625Z,100.00
2023-04-26T06:57:57.082Z,98.80
2023-04-26T07:00:24.058Z,97.34
2023-04-26T07:02:52.223Z,95.59
2023-04-26T07:05:19.751Z,96.16
2023-04-26T07:07:47.782Z,96.25
2023-04-26T07:10:14.801Z,96.82
2023-04-26T07:12:41.656Z,94.82
2023-04-26T07:15:09.430Z,94.22
2023-04-26T07:17:36.597Z,91.57
2023-04-26T07:20:04.111Z,91.20
2023-04-26T07:22:30.938Z,90.15
2023-04-26T07:24:57.770Z,89.18
2023-04-26T07:27:25.066Z,89.31
2023-04-26T07:29:55.946Z,86.28
2023-04-26T07:32:23.223Z,82.11
2023-04-26T07:34:50.165Z,77.94
2023-04-26T07:37:17.032Z,78.24
2023-04-26T07:39:43.794Z,80.72
2023-04-26T07:42:10.623Z,78.71
2023-04-26T07:44:38.870Z,80.21
2023-04-26T07:47:06.036Z,76.83
2023-04-26T07:49:32.882Z,75.00
2023-04-26T07:52:02.538Z,72.04
2023-04-26T07:54:32.649Z,69.82
2023-04-26T07:56:59.385Z,68.52
2023-04-26T07:59:26.651Z,68.83
2023-04-26T08:01:53.467Z,70.10
2023-04-26T08:04:34.123Z,68.34
2023-04-26T08:07:02.200Z,68.52
2023-04-26T08:09:31.180Z,65.71
2023-04-26T08:11:58.524Z,66.04
2023-04-26T08:14:25.546Z,65.56
2023-04-26T08:16:52.404Z,67.61
2023-04-26T08:19:19.286Z,67.65
2023-04-26T08:21:46.181Z,68.22
2023-04-26T08:24:12.983Z,68.93
2023-04-26T08:26:39.769Z,67.55
2023-04-26T08:29:07.521Z,67.17
2023-04-26T08:31:35.359Z,65.62
2023-04-26T08:34:02.310Z,66.46
2023-04-26T08:36:29.116Z,66.45
2023-04-26T08:38:57.543Z,65.38
2023-04-26T08:41:26.721Z,64.09
2023-04-26T08:43:56.046Z,63.95
2023-04-26T08:46:26.730Z,64.41
2023-04-26T08:49:13.459Z,64.54
2023-04-26T08:51:43.356Z,62.50
2023-04-26T08:54:12.473Z,61.01
2023-04-26T08:56:41.954Z,58.11
2023-04-26T08:59:11.163Z,60.28
2023-04-26T09:01:44.367Z,61.24
2023-04-26T09:04:13.116Z,61.70
2023-04-26T09:06:40.852Z,62.45
2023-04-26T09:09:12.036Z,60.99
2023-04-26T09:11:59.644Z,59.04
2023-04-26T09:14:28.128Z,59.82
2023-04-26T09:16:55.650Z,59.52
2023-04-26T09:19:40.259Z,59.80
2023-04-26T09:22:07.259Z,59.42
2023-04-26T09:24:52.394Z,59.14
2023-04-26T09:27:20.139Z,57.89
2023-04-26T09:30:20.821Z,58.72
2023-04-26T09:33:04.004Z,58.66
2023-04-26T09:35:36.394Z,58.83
2023-04-26T09:38:14.034Z,57.61
2023-04-26T09:40:50.265Z,57.44
2023-04-26T09:43:22.436Z,56.95
2023-04-26T09:45:59.114Z,56.67
2023-04-26T09:48:30.692Z,55.30
2023-04-26T09:51:18.822Z,52.59
2023-04-26T09:53:50.111Z,55.48
2023-04-26T09:56:22.115Z,53.65
2023-04-26T09:59:02.548Z,53.04
2023-04-26T10:01:30.548Z,50.30
2023-04-26T10:04:01.958Z,49.26
2023-04-26T10:06:29.691Z,46.87
2023-04-26T10:08:57.136Z,46.97
2023-04-26T10:11:28.048Z,47.35
2023-04-26T10:13:55.660Z,49.31
2023-04-26T10:16:23.792Z,48.69
2023-04-26T10:18:51.371Z,50.68
2023-04-26T10:21:40.634Z,49.08
2023-04-26T10:24:08.157Z,48.70
2023-04-26T10:26:53.264Z,49.41
2023-04-26T10:29:21.307Z,50.70
2023-04-26T10:32:08.577Z,48.95
2023-04-26T10:34:37.719Z,51.21
2023-04-26T10:37:13.664Z,47.94
2023-04-26T10:39:48.833Z,46.53
2023-04-26T10:42:27.712Z,47.86
2023-04-26T10:45:27.745Z,49.83
2023-04-26T10:48:23.474Z,49.41
2023-04-26T10:51:02.697Z,52.44
2023-04-26T10:53:32.370Z,47.12
2023-04-26T10:55:59.262Z,48.07
2023-04-26T10:58:41.575Z,48.96
2023-04-26T11:01:20.598Z,48.55
2023-04-26T11:03:57.187Z,48.39
2023-04-26T11:06:26.693Z,48.94
2023-04-26T11:08:54.546Z,49.50
2023-04-26T11:11:28.799Z,50.57
2023-04-26T11:13:56.562Z,49.04
2023-04-26T11:16:26.717Z,48.29
2023-04-26T11:18:55.697Z,50.46
2023-04-26T11:21:22.638Z,47.08
2023-04-26T11:23:56.233Z,47.11
2023-04-26T11:26:24.666Z,49.11
2023-04-26T11:28:51.687Z,50.90
2023-04-26T11:31:19.512Z,49.43
2023-04-26T11:33:49.128Z,48.69
2023-04-26T11:36:17.448Z,48.34
2023-04-26T11:38:44.393Z,48.19
2023-04-26T11:41:11.386Z,47.96
2023-04-26T11:43:39.791Z,46.53
2023-04-26T11:46:09.411Z,46.99
2023-04-26T11:48:38.636Z,47.92
2023-04-26T11:51:08.467Z,47.36
2023-04-26T11:53:40.914Z,47.56
2023-04-26T11:56:18.067Z,47.50
2023-04-26T11:58:51.398Z,47.60
2023-04-26T12:01:27.612Z,48.15
2023-04-26T12:04:10.500Z,47.89
2023-04-26T12:06:46.261Z,48.69
2023-04-26T12:09:13.973Z,46.79
2023-04-26T12:11:41.195Z,46.31
2023-04-26T12:14:10.336Z,45.88
2023-04-26T12:16:37.733Z,46.20
2023-04-26T12:19:09.070Z,45.32
2023-04-26T12:21:46.843Z,45.64
2023-04-26T12:24:38.808Z,44.36
2023-04-26T12:27:07.462Z,43.85
2023-04-26T12:29:35.459Z,42.59
2023-04-26T12:32:04.306Z,41.74
2023-04-26T12:34:31.799Z,40.82
2023-04-26T12:36:58.827Z,40.46
2023-04-26T12:39:25.688Z,38.27
2023-04-26T12:41:52.716Z,39.42
2023-04-26T12:44:21.877Z,39.11
2023-04-26T12:46:50.104Z,38.54
2023-04-26T12:49:16.953Z,40.36
2023-04-26T12:51:43.761Z,41.45
2023-04-26T12:54:13.509Z,41.59
2023-04-26T12:56:44.540Z,42.06
2023-04-26T12:59:11.754Z,42.59
2023-04-26T13:01:38.929Z,43.78
2023-04-26T13:04:06.532Z,43.25
2023-04-26T13:06:35.158Z,43.41
2023-04-26T13:09:02.175Z,43.79
2023-04-26T13:11:28.967Z,42.35
2023-04-26T13:13:56.697Z,42.41
2023-04-26T13:16:23.767Z,42.91
2023-04-26T13:18:50.839Z,42.37
2023-04-26T13:21:17.617Z,39.97
2023-04-26T13:23:46.165Z,39.23
2023-04-26T13:26:15.207Z,40.20
2023-04-26T13:28:42.190Z,41.78
2023-04-26T13:31:09.240Z,43.66
2023-04-26T13:33:38.632Z,43.71
2023-04-26T13:36:05.721Z,42.73
2023-04-26T13:38:33.066Z,42.41
2023-04-26T13:41:00.216Z,42.40
2023-04-26T13:43:27.542Z,43.07
2023-04-26T13:45:54.615Z,44.01
2023-04-26T13:48:21.441Z,43.44
2023-04-26T13:50:49.958Z,42.49
2023-04-26T13:53:16.931Z,42.52
2023-04-26T13:55:44.243Z,43.55
2023-04-26T13:58:11.161Z,43.24
2023-04-26T14:00:40.237Z,43.41
2023-04-26T14:03:07.468Z,41.87
2023-04-26T14:05:34.784Z,39.38
2023-04-26T14:08:03.197Z,39.63
2023-04-26T14:10:30.829Z,38.52
2023-04-26T14:12:57.808Z,38.59
2023-04-26T14:15:25.594Z,38.69
2023-04-26T14:17:52.558Z,38.66
2023-04-26T14:20:19.533Z,38.10
2023-04-26T14:22:46.456Z,38.67
2023-04-26T14:25:15.140Z,40.90
2023-04-26T14:27:43.233Z,40.25
2023-04-26T14:30:10.577Z,40.59
2023-04-26T14:32:37.564Z,39.75
2023-04-26T14:35:05.016Z,41.79
2023-04-26T14:37:32.095Z,43.96
2023-04-26T14:40:00.136Z,42.45
2023-04-26T14:42:27.023Z,43.88
2023-04-26T14:44:54.597Z,44.18
2023-04-26T14:47:21.698Z,44.62
2023-04-26T14:49:51.552Z,44.05
2023-04-26T14:52:18.929Z,43.78
2023-04-26T14:54:45.960Z,44.30
2023-04-26T14:57:12.845Z,44.47
2023-04-26T14:59:39.593Z,44.24
2023-04-26T15:02:07.038Z,44.46
2023-04-26T15:04:34.244Z,42.45
2023-04-26T15:07:01.287Z,42.31
2023-04-26T15:09:30.259Z,42.63
2023-04-26T15:11:57.508Z,44.17
2023-04-26T15:14:24.336Z,44.63
2023-04-26T15:16:51.344Z,44.93
2023-04-26T15:19:18.742Z,44.88
2023-04-26T15:21:45.522Z,45.94
2023-04-26T15:24:12.356Z,45.46
2023-04-26T15:26:39.377Z,46.35
2023-04-26T15:29:06.444Z,45.71
2023-04-26T15:31:37.240Z,46.36
2023-04-26T15:34:04.662Z,45.72
2023-04-26T15:36:32.106Z,45.47
2023-04-26T15:38:59.221Z,45.23
2023-04-26T15:41:26.179Z,45.78
2023-04-26T15:43:56.162Z,45.41
2023-04-26T15:46:23.241Z,46.20
2023-04-26T15:48:50.792Z,46.06
2023-04-26T15:51:17.627Z,45.83
2023-04-26T15:53:44.452Z,46.97
2023-04-26T15:56:16.445Z,46.59
2023-04-26T15:58:47.126Z,46.47
2023-04-26T16:01:15.081Z,45.69
2023-04-26T16:03:45.494Z,45.44
2023-04-26T16:06:14.730Z,46.14
2023-04-26T16:08:42.019Z,46.36
2023-04-26T16:11:09.154Z,46.92
2023-04-26T16:13:39.939Z,47.88
2023-04-26T16:16:10.683Z,47.46
2023-04-26T16:18:39.902Z,47.73
2023-04-26T16:21:10.481Z,47.43
2023-04-26T16:23:37.730Z,47.61
2023-04-26T16:26:05.443Z,47.46
2023-04-26T16:28:32.589Z,46.95
2023-04-26T16:31:02.351Z,48.01
2023-04-26T16:33:44.359Z,47.68
2023-04-26T16:36:15.960Z,47.76
2023-04-26T16:38:42.850Z,48.74
2023-04-26T16:41:09.900Z,48.20
2023-04-26T16:43:36.945Z,48.59
2023-04-26T16:46:08.024Z,49.03
2023-04-26T16:48:39.302Z,49.64
2023-04-26T16:51:10.509Z,49.00
2023-04-26T16:53:38.033Z,47.96
2023-04-26T16:56:08.682Z,48.82
2023-04-26T16:58:35.533Z,48.75
2023-04-26T17:01:02.534Z,48.38
2023-04-26T17:03:29.474Z,48.34
2023-04-26T17:05:56.443Z,48.67
2023-04-26T17:08:23.303Z,48.67
2023-04-26T17:10:51.687Z,48.61
2023-04-26T17:13:19.006Z,48.57
2023-04-26T17:15:46.538Z,48.98
2023-04-26T17:18:13.444Z,49.36
2023-04-26T17:20:41.125Z,48.74
2023-04-26T17:23:09.222Z,48.90
2023-04-26T17:25:36.474Z,49.09
2023-04-26T17:28:03.682Z,49.01
2023-04-26T17:30:30.644Z,48.73
2023-04-26T17:32:59.399Z,48.68
2023-04-26T17:35:26.344Z,48.79
2023-04-26T17:37:53.225Z,48.60
2023-04-26T17:40:20.340Z,49.10
2023-04-26T17:42:47.320Z,48.21
2023-04-26T17:45:14.771Z,48.61
2023-04-26T17:47:42.932Z,48.99
2023-04-26T17:50:10.560Z,48.63
2023-04-26T17:52:38.069Z,49.16
2023-04-26T17:55:08.065Z,48.87
2023-04-26T17:57:35.482Z,49.94
2023-04-26T18:00:03.815Z,49.52
2023-04-26T18:02:30.781Z,49.05
2023-04-26T18:04:57.999Z,48.91
2023-04-26T18:07:25.250Z,48.76
2023-04-26T18:09:54.231Z,49.23
2023-04-26T18:12:22.010Z,49.79
2023-04-26T18:14:48.844Z,49.03
2023-04-26T18:17:16.331Z,49.49
2023-04-26T18:19:43.202Z,50.34
2023-04-26T18:22:10.094Z,50.42
2023-04-26T18:24:37.508Z,52.04
2023-04-26T18:27:04.539Z,53.60
2023-04-26T18:29:31.550Z,54.44
2023-04-26T18:31:58.647Z,56.82
2023-04-26T18:34:25.464Z,58.17
2023-04-26T18:36:52.387Z,59.76
2023-04-26T18:39:19.305Z,62.23
2023-04-26T18:41:46.193Z,64.10
2023-04-26T18:44:13.277Z,64.84
2023-04-26T18:46:41.568Z,64.85
2023-04-26T18:49:09.611Z,65.04
2023-04-26T18:51:37.049Z,65.27
2023-04-26T18:54:04.540Z,65.43
2023-04-26T18:56:31.775Z,65.32
2023-04-26T18:58:58.684Z,65.81
2023-04-26T19:01:25.707Z,65.96
2023-04-26T19:03:52.808Z,65.75
2023-04-26T19:06:19.771Z,65.99
2023-04-26T19:08:46.606Z,66.03
2023-04-26T19:11:13.877Z,66.42
2023-04-26T19:13:41.587Z,66.74
2023-04-26T19:16:10.075Z,66.88
2023-04-26T19:18:37.937Z,66.94
2023-04-26T19:21:07.045Z,67.87
2023-04-26T19:23:34.869Z,67.96
2023-04-26T19:26:14.596Z,68.97
2023-04-26T19:28:42.240Z,69.48
2023-04-26T19:31:10.213Z,69.55
2023-04-26T19:33:38.182Z,70.42
2023-04-26T19:36:05.574Z,70.80
2023-04-26T19:38:32.579Z,70.81
2023-04-26T19:41:01.194Z,70.86
2023-04-26T19:43:28.004Z,70.99
2023-04-26T19:45:54.839Z,70.93
2023-04-26T19:48:21.708Z,69.80
2023-04-26T19:50:48.515Z,70.13
2023-04-26T19:53:15.585Z,70.46
2023-04-26T19:55:42.949Z,71.14
2023-04-26T19:58:11.007Z,71.88
2023-04-26T20:00:39.686Z,73.52
2023-04-26T20:03:07.652Z,74.22
2023-04-26T20:05:34.827Z,74.20
2023-04-26T20:08:01.859Z,74.52
2023-04-26T20:10:33.672Z,74.88
2023-04-26T20:13:01.362Z,75.13
2023-04-26T20:15:29.857Z,75.20
2023-04-26T20:17:58.094Z,74.94
2023-04-26T20:20:25.459Z,74.58
2023-04-26T20:22:52.492Z,74.70
2023-04-26T20:25:20.061Z,73.36
2023-04-26T20:27:55.302Z,74.33
2023-04-26T20:30:24.789Z,75.41
2023-04-26T20:32:51.908Z,75.25
2023-04-26T20:35:18.955Z,74.76
2023-04-26T20:37:46.007Z,75.47
2023-04-26T20:40:13.120Z,76.42
2023-04-26T20:42:39.949Z,77.26
2023-04-26T20:45:07.485Z,77.88
2023-04-26T20:47:36.734Z,78.69
2023-04-26T20:50:05.179Z,79.21
2023-04-26T20:52:32.391Z,79.37
2023-04-26T20:55:00.463Z,79.54
2023-04-26T20:57:27.657Z,79.71
2023-04-26T20:59:59.685Z,80.04
2023-04-26T21:02:26.916Z,80.57
2023-04-26T21:04:54.498Z,80.54
2023-04-26T21:07:21.345Z,79.85
2023-04-26T21:09:49.172Z,79.31
2023-04-26T21:12:16.117Z,79.11
2023-04-26T21:14:45.805Z,79.11
2023-04-26T21:17:12.635Z,79.43
2023-04-26T21:19:39.646Z,79.05
2023-04-26T21:22:06.613Z,78.76
2023-04-26T21:24:36.380Z,78.77
2023-04-26T21:27:04.392Z,79.33
2023-04-26T21:29:32.127Z,80.60
2023-04-26T21:31:58.939Z,80.65
2023-04-26T21:34:26.143Z,80.63
2023-04-26T21:36:53.723Z,80.35
2023-04-26T21:39:24.752Z,80.66
2023-04-26T21:41:52.646Z,81.46
2023-04-26T21:44:25.036Z,82.43
2023-04-26T21:46:51.919Z,81.73
2023-04-26T21:49:18.702Z,82.08
2023-04-26T21:51:45.869Z,82.32
2023-04-26T21:54:16.488Z,83.09
2023-04-26T21:56:46.434Z,83.46
2023-04-26T21:59:14.457Z,83.79
2023-04-26T22:01:42.644Z,84.15
2023-04-26T22:04:10.626Z,83.72
2023-04-26T22:06:38.112Z,84.56
2023-04-26T22:09:10.029Z,85.40
2023-04-26T22:11:37.141Z,85.25
2023-04-26T22:14:05.664Z,85.27
2023-04-26T22:16:32.894Z,85.05
2023-04-26T22:18:59.775Z,85.23
2023-04-26T22:21:26.902Z,86.34
2023-04-26T22:23:57.414Z,85.65
2023-04-26T22:26:30.105Z,85.30
2023-04-26T22:28:59.717Z,85.45
2023-04-26T22:31:27.413Z,86.37
2023-04-26T22:33:54.702Z,87.00
2023-04-26T22:36:21.506Z,86.98
2023-04-26T22:38:48.360Z,86.91
2023-04-26T22:41:16.850Z,86.57
2023-04-26T22:43:45.067Z,86.17
2023-04-26T22:46:12.164Z,86.53
2023-04-26T22:48:39.625Z,85.48
2023-04-26T22:51:06.599Z,84.93
2023-04-26T22:53:33.492Z,84.73
2023-04-26T22:56:01.384Z,84.99
2023-04-26T22:58:32.575Z,84.97
2023-04-26T23:00:59.519Z,84.59
2023-04-26T23:03:26.514Z,84.99
2023-04-26T23:05:53.526Z,84.64
2023-04-26T23:08:20.481Z,85.12
2023-04-26T23:10:47.431Z,85.74
2023-04-26T23:13:16.143Z,85.69
2023-04-26T23:15:43.125Z,85.46
2023-04-26T23:18:09.976Z,85.87
2023-04-26T23:20:36.802Z,86.18
2023-04-26T23:23:03.717Z,85.76
2023-04-26T23:25:30.661Z,85.86
2023-04-26T23:27:57.431Z,85.87
2023-04-26T23:30:24.317Z,86.99
2023-04-26T23:32:51.255Z,86.20
2023-04-26T23:35:18.132Z,86.40
2023-04-26T23:37:45.054Z,87.42
2023-04-26T23:40:12.663Z,87.41
2023-04-26T23:42:39.872Z,87.47
2023-04-26T23:45:07.877Z,89.06
2023-04-26T23:47:34.826Z,88.92
2023-04-26T23:50:01.948Z,89.41
2023-04-26T23:52:28.820Z,90.01
2023-04-26T23:54:55.858Z,90.52
2023-04-26T23:57:22.684Z,90.59
2023-04-26T23:59:52.723Z,89.87
